sensor_id;sensor_type;location;lat;lon;timestamp;temperature;humidity
16532;DHT22;66872;63.142;14.482;2023-09-18T00:01:40;15.80;47.70
16532;DHT22;66872;63.142;14.482;2023-09-18T00:04:06;15.80;47.70
16532;DHT22;66872;63.142;14.482;2023-09-18T00:06:32;15.80;47.70
16532;DHT22;66872;63.142;14.482;2023-09-18T00:08:58;15.80;47.70
16532;DHT22;66872;63.142;14.482;2023-09-18T00:11:24;15.80;47.80
16532;DHT22;66872;63.142;14.482;2023-09-18T00:13:50;15.80;47.70
16532;DHT22;66872;63.142;14.482;2023-09-18T00:16:16;15.80;47.80
16532;DHT22;66872;63.142;14.482;2023-09-18T00:18:42;15.80;47.80
16532;DHT22;66872;63.142;14.482;2023-09-18T00:21:10;15.80;47.80
16532;DHT22;66872;63.142;14.482;2023-09-18T00:23:38;15.80;47.80
16532;DHT22;66872;63.142;14.482;2023-09-18T00:26:04;15.80;47.80
16532;DHT22;66872;63.142;14.482;2023-09-18T00:28:30;15.80;47.80
16532;DHT22;66872;63.142;14.482;2023-09-18T00:30:56;15.80;47.80
16532;DHT22;66872;63.142;14.482;2023-09-18T00:33:21;15.80;47.80
16532;DHT22;66872;63.142;14.482;2023-09-18T00:35:48;15.80;47.90
16532;DHT22;66872;63.142;14.482;2023-09-18T00:38:15;15.80;47.90
16532;DHT22;66872;63.142;14.482;2023-09-18T00:40:40;15.80;47.90
16532;DHT22;66872;63.142;14.482;2023-09-18T00:43:06;15.80;47.90
16532;DHT22;66872;63.142;14.482;2023-09-18T00:45:32;15.80;47.90
16532;DHT22;66872;63.142;14.482;2023-09-18T00:47:58;15.80;47.90
16532;DHT22;66872;63.142;14.482;2023-09-18T00:50:24;15.80;48.00
16532;DHT22;66872;63.142;14.482;2023-09-18T00:52:50;15.80;48.00
16532;DHT22;66872;63.142;14.482;2023-09-18T00:55:16;15.80;48.00
16532;DHT22;66872;63.142;14.482;2023-09-18T00:57:42;15.70;47.90
16532;DHT22;66872;63.142;14.482;2023-09-18T01:00:09;15.70;48.00
16532;DHT22;66872;63.142;14.482;2023-09-18T01:02:35;15.70;48.00
16532;DHT22;66872;63.142;14.482;2023-09-18T01:05:00;15.70;48.00
16532;DHT22;66872;63.142;14.482;2023-09-18T01:07:26;15.70;48.00
16532;DHT22;66872;63.142;14.482;2023-09-18T01:09:54;15.70;48.00
16532;DHT22;66872;63.142;14.482;2023-09-18T01:12:49;15.70;48.00
16532;DHT22;66872;63.142;14.482;2023-09-18T01:15:32;15.80;48.10
16532;DHT22;66872;63.142;14.482;2023-09-18T01:17:59;15.70;48.10
16532;DHT22;66872;63.142;14.482;2023-09-18T01:20:24;15.70;48.10
16532;DHT22;66872;63.142;14.482;2023-09-18T01:22:51;15.70;48.10
16532;DHT22;66872;63.142;14.482;2023-09-18T01:25:16;15.70;48.10
16532;DHT22;66872;63.142;14.482;2023-09-18T01:27:42;15.70;48.10
16532;DHT22;66872;63.142;14.482;2023-09-18T01:30:08;15.70;48.10
16532;DHT22;66872;63.142;14.482;2023-09-18T01:32:35;15.70;48.20
16532;DHT22;66872;63.142;14.482;2023-09-18T01:35:02;15.70;48.20
16532;DHT22;66872;63.142;14.482;2023-09-18T01:37:31;15.70;48.20
16532;DHT22;66872;63.142;14.482;2023-09-18T01:39:58;15.70;48.20
16532;DHT22;66872;63.142;14.482;2023-09-18T01:42:28;15.70;48.20
16532;DHT22;66872;63.142;14.482;2023-09-18T01:44:55;15.70;48.30
16532;DHT22;66872;63.142;14.482;2023-09-18T01:47:21;15.70;48.30
16532;DHT22;66872;63.142;14.482;2023-09-18T01:49:52;15.70;48.30
16532;DHT22;66872;63.142;14.482;2023-09-18T01:52:18;15.70;48.30
16532;DHT22;66872;63.142;14.482;2023-09-18T01:54:43;15.70;48.30
16532;DHT22;66872;63.142;14.482;2023-09-18T01:57:09;15.70;48.30
16532;DHT22;66872;63.142;14.482;2023-09-18T01:59:35;15.70;48.30
16532;DHT22;66872;63.142;14.482;2023-09-18T02:02:01;15.70;48.30
16532;DHT22;66872;63.142;14.482;2023-09-18T02:04:29;15.70;48.30
16532;DHT22;66872;63.142;14.482;2023-09-18T02:06:56;15.60;48.30
16532;DHT22;66872;63.142;14.482;2023-09-18T02:09:22;15.60;48.30
16532;DHT22;66872;63.142;14.482;2023-09-18T02:11:48;15.60;48.30
16532;DHT22;66872;63.142;14.482;2023-09-18T02:14:14;15.60;48.30
16532;DHT22;66872;63.142;14.482;2023-09-18T02:16:41;15.60;48.40
16532;DHT22;66872;63.142;14.482;2023-09-18T02:19:11;15.60;48.40
16532;DHT22;66872;63.142;14.482;2023-09-18T02:21:37;15.60;48.40
16532;DHT22;66872;63.142;14.482;2023-09-18T02:24:03;15.60;48.40
16532;DHT22;66872;63.142;14.482;2023-09-18T02:26:29;15.60;48.40
16532;DHT22;66872;63.142;14.482;2023-09-18T02:29:00;15.60;48.40
16532;DHT22;66872;63.142;14.482;2023-09-18T02:31:26;15.60;48.40
16532;DHT22;66872;63.142;14.482;2023-09-18T02:33:52;15.60;48.50
16532;DHT22;66872;63.142;14.482;2023-09-18T02:36:18;15.60;48.50
16532;DHT22;66872;63.142;14.482;2023-09-18T02:38:43;15.60;48.50
16532;DHT22;66872;63.142;14.482;2023-09-18T02:41:10;15.60;48.50
16532;DHT22;66872;63.142;14.482;2023-09-18T02:43:35;15.60;48.50
16532;DHT22;66872;63.142;14.482;2023-09-18T02:46:03;15.60;48.50
16532;DHT22;66872;63.142;14.482;2023-09-18T02:48:30;15.60;48.50
16532;DHT22;66872;63.142;14.482;2023-09-18T02:50:56;15.60;48.50
16532;DHT22;66872;63.142;14.482;2023-09-18T02:53:24;15.60;48.50
16532;DHT22;66872;63.142;14.482;2023-09-18T02:55:51;15.60;48.50
16532;DHT22;66872;63.142;14.482;2023-09-18T02:58:18;15.60;48.50
16532;DHT22;66872;63.142;14.482;2023-09-18T03:00:49;15.60;48.50
16532;DHT22;66872;63.142;14.482;2023-09-18T03:03:16;15.60;48.50
16532;DHT22;66872;63.142;14.482;2023-09-18T03:05:42;15.60;48.50
16532;DHT22;66872;63.142;14.482;2023-09-18T03:08:09;15.50;48.50
16532;DHT22;66872;63.142;14.482;2023-09-18T03:10:36;15.50;48.50
16532;DHT22;66872;63.142;14.482;2023-09-18T03:13:03;15.50;48.50
16532;DHT22;66872;63.142;14.482;2023-09-18T03:15:29;15.50;48.50
16532;DHT22;66872;63.142;14.482;2023-09-18T03:17:57;15.50;48.50
16532;DHT22;66872;63.142;14.482;2023-09-18T03:20:24;15.50;48.50
16532;DHT22;66872;63.142;14.482;2023-09-18T03:22:51;15.50;48.50
16532;DHT22;66872;63.142;14.482;2023-09-18T03:25:17;15.50;48.50
16532;DHT22;66872;63.142;14.482;2023-09-18T03:27:43;15.50;48.50
16532;DHT22;66872;63.142;14.482;2023-09-18T03:30:08;15.50;48.50
16532;DHT22;66872;63.142;14.482;2023-09-18T03:32:34;15.50;48.50
16532;DHT22;66872;63.142;14.482;2023-09-18T03:35:01;15.50;48.60
16532;DHT22;66872;63.142;14.482;2023-09-18T03:37:27;15.50;48.50
16532;DHT22;66872;63.142;14.482;2023-09-18T03:39:52;15.50;48.60
16532;DHT22;66872;63.142;14.482;2023-09-18T03:42:18;15.50;48.60
16532;DHT22;66872;63.142;14.482;2023-09-18T03:44:44;15.50;48.60
16532;DHT22;66872;63.142;14.482;2023-09-18T03:47:09;15.50;48.60
16532;DHT22;66872;63.142;14.482;2023-09-18T03:49:35;15.50;48.60
16532;DHT22;66872;63.142;14.482;2023-09-18T03:52:01;15.50;48.60
16532;DHT22;66872;63.142;14.482;2023-09-18T03:54:26;15.50;48.70
16532;DHT22;66872;63.142;14.482;2023-09-18T03:56:52;15.50;48.70
16532;DHT22;66872;63.142;14.482;2023-09-18T03:59:17;15.50;48.60
16532;DHT22;66872;63.142;14.482;2023-09-18T04:01:43;15.50;48.70
16532;DHT22;66872;63.142;14.482;2023-09-18T04:04:09;15.50;48.70
16532;DHT22;66872;63.142;14.482;2023-09-18T04:06:43;15.50;48.70
16532;DHT22;66872;63.142;14.482;2023-09-18T04:09:09;15.40;48.70
16532;DHT22;66872;63.142;14.482;2023-09-18T04:11:35;15.40;48.70
16532;DHT22;66872;63.142;14.482;2023-09-18T04:14:01;15.40;48.70
16532;DHT22;66872;63.142;14.482;2023-09-18T04:16:28;15.50;48.70
16532;DHT22;66872;63.142;14.482;2023-09-18T04:18:56;15.50;48.80
16532;DHT22;66872;63.142;14.482;2023-09-18T04:21:22;15.40;48.70
16532;DHT22;66872;63.142;14.482;2023-09-18T04:23:49;15.40;48.70
16532;DHT22;66872;63.142;14.482;2023-09-18T04:26:21;15.40;48.80
16532;DHT22;66872;63.142;14.482;2023-09-18T04:28:47;15.40;48.80
16532;DHT22;66872;63.142;14.482;2023-09-18T04:31:13;15.40;48.80
16532;DHT22;66872;63.142;14.482;2023-09-18T04:33:39;15.40;48.80
16532;DHT22;66872;63.142;14.482;2023-09-18T04:36:04;15.40;48.80
16532;DHT22;66872;63.142;14.482;2023-09-18T04:38:31;15.40;48.80
16532;DHT22;66872;63.142;14.482;2023-09-18T04:41:00;15.40;48.80
16532;DHT22;66872;63.142;14.482;2023-09-18T04:43:26;15.40;48.80
16532;DHT22;66872;63.142;14.482;2023-09-18T04:45:55;15.40;48.80
16532;DHT22;66872;63.142;14.482;2023-09-18T04:48:20;15.40;48.90
16532;DHT22;66872;63.142;14.482;2023-09-18T04:50:46;15.40;48.90
16532;DHT22;66872;63.142;14.482;2023-09-18T04:53:13;15.40;48.80
16532;DHT22;66872;63.142;14.482;2023-09-18T04:55:38;15.40;48.90
16532;DHT22;66872;63.142;14.482;2023-09-18T04:58:04;15.40;48.80
16532;DHT22;66872;63.142;14.482;2023-09-18T05:00:30;15.50;48.90
16532;DHT22;66872;63.142;14.482;2023-09-18T05:02:57;15.40;48.80
16532;DHT22;66872;63.142;14.482;2023-09-18T05:05:27;15.40;48.70
16532;DHT22;66872;63.142;14.482;2023-09-18T05:07:52;15.40;48.70
16532;DHT22;66872;63.142;14.482;2023-09-18T05:10:18;15.40;48.70
16532;DHT22;66872;63.142;14.482;2023-09-18T05:12:44;15.50;48.70
16532;DHT22;66872;63.142;14.482;2023-09-18T05:15:09;15.50;48.70
16532;DHT22;66872;63.142;14.482;2023-09-18T05:17:43;15.50;48.70
16532;DHT22;66872;63.142;14.482;2023-09-18T05:20:10;15.50;48.60
16532;DHT22;66872;63.142;14.482;2023-09-18T05:22:44;15.50;48.60
16532;DHT22;66872;63.142;14.482;2023-09-18T05:25:10;15.50;48.50
16532;DHT22;66872;63.142;14.482;2023-09-18T05:27:37;15.50;48.50
16532;DHT22;66872;63.142;14.482;2023-09-18T05:30:11;15.60;48.60
16532;DHT22;66872;63.142;14.482;2023-09-18T05:32:37;15.60;48.50
16532;DHT22;66872;63.142;14.482;2023-09-18T05:35:03;15.60;48.50
16532;DHT22;66872;63.142;14.482;2023-09-18T05:37:32;15.60;48.40
16532;DHT22;66872;63.142;14.482;2023-09-18T05:39:58;15.60;48.40
16532;DHT22;66872;63.142;14.482;2023-09-18T05:42:23;15.70;48.40
16532;DHT22;66872;63.142;14.482;2023-09-18T05:44:49;15.70;48.30
16532;DHT22;66872;63.142;14.482;2023-09-18T05:47:15;15.70;48.30
16532;DHT22;66872;63.142;14.482;2023-09-18T05:49:40;15.70;48.80
16532;DHT22;66872;63.142;14.482;2023-09-18T05:52:06;15.70;48.10
16532;DHT22;66872;63.142;14.482;2023-09-18T05:54:32;15.80;48.20
16532;DHT22;66872;63.142;14.482;2023-09-18T05:56:57;15.80;48.10
16532;DHT22;66872;63.142;14.482;2023-09-18T05:59:23;15.80;48.00
16532;DHT22;66872;63.142;14.482;2023-09-18T06:01:49;15.80;47.90
16532;DHT22;66872;63.142;14.482;2023-09-18T06:04:14;15.90;47.90
16532;DHT22;66872;63.142;14.482;2023-09-18T06:06:42;15.90;47.90
16532;DHT22;66872;63.142;14.482;2023-09-18T06:09:08;15.90;47.80
16532;DHT22;66872;63.142;14.482;2023-09-18T06:11:33;15.90;47.70
16532;DHT22;66872;63.142;14.482;2023-09-18T06:14:00;16.00;47.70
16532;DHT22;66872;63.142;14.482;2023-09-18T06:16:25;16.00;47.60
16532;DHT22;66872;63.142;14.482;2023-09-18T06:18:51;16.00;47.60
16532;DHT22;66872;63.142;14.482;2023-09-18T06:21:17;16.00;47.50
16532;DHT22;66872;63.142;14.482;2023-09-18T06:23:42;16.10;47.50
16532;DHT22;66872;63.142;14.482;2023-09-18T06:26:08;16.10;47.50
16532;DHT22;66872;63.142;14.482;2023-09-18T06:28:34;16.10;47.40
16532;DHT22;66872;63.142;14.482;2023-09-18T06:30:59;16.10;47.30
16532;DHT22;66872;63.142;14.482;2023-09-18T06:33:25;16.10;47.30
16532;DHT22;66872;63.142;14.482;2023-09-18T06:35:51;16.20;47.30
16532;DHT22;66872;63.142;14.482;2023-09-18T06:38:17;16.20;47.20
16532;DHT22;66872;63.142;14.482;2023-09-18T06:40:43;16.30;47.10
16532;DHT22;66872;63.142;14.482;2023-09-18T06:43:08;16.40;46.90
16532;DHT22;66872;63.142;14.482;2023-09-18T06:45:34;16.50;46.70
16532;DHT22;66872;63.142;14.482;2023-09-18T06:48:02;16.60;46.50
16532;DHT22;66872;63.142;14.482;2023-09-18T06:50:28;16.70;46.30
16532;DHT22;66872;63.142;14.482;2023-09-18T06:52:54;16.70;46.10
16532;DHT22;66872;63.142;14.482;2023-09-18T06:55:20;16.70;46.10
16532;DHT22;66872;63.142;14.482;2023-09-18T06:57:45;16.70;46.00
16532;DHT22;66872;63.142;14.482;2023-09-18T07:00:13;16.70;45.90
16532;DHT22;66872;63.142;14.482;2023-09-18T07:02:40;16.70;45.90
16532;DHT22;66872;63.142;14.482;2023-09-18T07:05:06;16.70;46.00
16532;DHT22;66872;63.142;14.482;2023-09-18T07:07:32;16.70;46.00
16532;DHT22;66872;63.142;14.482;2023-09-18T07:09:58;16.70;46.00
16532;DHT22;66872;63.142;14.482;2023-09-18T07:12:24;16.70;46.10
16532;DHT22;66872;63.142;14.482;2023-09-18T07:14:50;16.70;46.10
16532;DHT22;66872;63.142;14.482;2023-09-18T07:17:15;16.70;46.10
16532;DHT22;66872;63.142;14.482;2023-09-18T07:19:41;16.70;46.20
16532;DHT22;66872;63.142;14.482;2023-09-18T07:22:07;16.60;46.10
16532;DHT22;66872;63.142;14.482;2023-09-18T07:24:33;16.60;46.20
16532;DHT22;66872;63.142;14.482;2023-09-18T07:26:58;16.60;46.20
16532;DHT22;66872;63.142;14.482;2023-09-18T07:29:24;16.60;46.20
16532;DHT22;66872;63.142;14.482;2023-09-18T07:31:53;16.60;46.20
16532;DHT22;66872;63.142;14.482;2023-09-18T07:34:19;16.60;46.30
16532;DHT22;66872;63.142;14.482;2023-09-18T07:36:44;16.60;46.20
16532;DHT22;66872;63.142;14.482;2023-09-18T07:39:10;16.60;46.20
16532;DHT22;66872;63.142;14.482;2023-09-18T07:41:37;16.60;46.20
16532;DHT22;66872;63.142;14.482;2023-09-18T07:44:03;16.60;46.20
16532;DHT22;66872;63.142;14.482;2023-09-18T07:46:29;16.60;46.20
16532;DHT22;66872;63.142;14.482;2023-09-18T07:48:55;16.70;46.30
16532;DHT22;66872;63.142;14.482;2023-09-18T07:51:21;16.70;46.30
16532;DHT22;66872;63.142;14.482;2023-09-18T07:53:47;16.70;46.20
16532;DHT22;66872;63.142;14.482;2023-09-18T07:56:12;16.70;46.20
16532;DHT22;66872;63.142;14.482;2023-09-18T07:58:38;16.70;46.10
16532;DHT22;66872;63.142;14.482;2023-09-18T08:01:07;16.70;46.10
16532;DHT22;66872;63.142;14.482;2023-09-18T08:03:34;16.70;46.10
16532;DHT22;66872;63.142;14.482;2023-09-18T08:06:00;16.80;46.20
16532;DHT22;66872;63.142;14.482;2023-09-18T08:08:26;16.80;46.10
16532;DHT22;66872;63.142;14.482;2023-09-18T08:10:52;16.80;46.10
16532;DHT22;66872;63.142;14.482;2023-09-18T08:13:18;16.80;46.10
16532;DHT22;66872;63.142;14.482;2023-09-18T08:15:45;16.80;46.00
16532;DHT22;66872;63.142;14.482;2023-09-18T08:18:12;16.80;45.90
16532;DHT22;66872;63.142;14.482;2023-09-18T08:20:44;16.90;45.90
16532;DHT22;66872;63.142;14.482;2023-09-18T08:23:10;16.90;45.80
16532;DHT22;66872;63.142;14.482;2023-09-18T08:25:36;17.00;45.70
16532;DHT22;66872;63.142;14.482;2023-09-18T08:28:02;17.00;45.60
16532;DHT22;66872;63.142;14.482;2023-09-18T08:30:30;17.00;45.60
16532;DHT22;66872;63.142;14.482;2023-09-18T08:32:55;17.00;45.60
16532;DHT22;66872;63.142;14.482;2023-09-18T08:35:21;17.10;45.60
16532;DHT22;66872;63.142;14.482;2023-09-18T08:37:48;17.00;45.40
16532;DHT22;66872;63.142;14.482;2023-09-18T08:40:14;17.10;45.50
16532;DHT22;66872;63.142;14.482;2023-09-18T08:42:45;17.10;45.40
16532;DHT22;66872;63.142;14.482;2023-09-18T08:45:16;17.10;45.40
16532;DHT22;66872;63.142;14.482;2023-09-18T08:47:45;17.10;45.30
16532;DHT22;66872;63.142;14.482;2023-09-18T08:50:12;17.20;45.50
16532;DHT22;66872;63.142;14.482;2023-09-18T08:52:38;17.30;45.80
16532;DHT22;66872;63.142;14.482;2023-09-18T08:55:06;17.40;45.60
16532;DHT22;66872;63.142;14.482;2023-09-18T08:57:32;17.40;45.30
16532;DHT22;66872;63.142;14.482;2023-09-18T08:59:58;17.40;45.30
16532;DHT22;66872;63.142;14.482;2023-09-18T09:02:27;17.40;45.20
16532;DHT22;66872;63.142;14.482;2023-09-18T09:04:52;17.40;45.10
16532;DHT22;66872;63.142;14.482;2023-09-18T09:07:18;17.30;45.10
16532;DHT22;66872;63.142;14.482;2023-09-18T09:09:44;17.30;45.20
16532;DHT22;66872;63.142;14.482;2023-09-18T09:12:10;17.30;45.20
16532;DHT22;66872;63.142;14.482;2023-09-18T09:14:35;17.30;45.20
16532;DHT22;66872;63.142;14.482;2023-09-18T09:17:01;17.30;45.20
16532;DHT22;66872;63.142;14.482;2023-09-18T09:19:32;17.30;45.20
16532;DHT22;66872;63.142;14.482;2023-09-18T09:22:01;17.30;45.30
16532;DHT22;66872;63.142;14.482;2023-09-18T09:24:41;17.30;45.30
16532;DHT22;66872;63.142;14.482;2023-09-18T09:27:07;17.30;45.30
16532;DHT22;66872;63.142;14.482;2023-09-18T09:29:33;17.30;45.20
16532;DHT22;66872;63.142;14.482;2023-09-18T09:32:18;17.40;45.30
16532;DHT22;66872;63.142;14.482;2023-09-18T09:34:45;17.30;45.20
16532;DHT22;66872;63.142;14.482;2023-09-18T09:37:14;17.40;45.10
16532;DHT22;66872;63.142;14.482;2023-09-18T09:39:52;17.40;45.10
16532;DHT22;66872;63.142;14.482;2023-09-18T09:42:19;17.40;45.10
16532;DHT22;66872;63.142;14.482;2023-09-18T09:45:04;17.40;45.10
16532;DHT22;66872;63.142;14.482;2023-09-18T09:47:35;17.40;45.20
16532;DHT22;66872;63.142;14.482;2023-09-18T09:50:09;17.30;45.10
16532;DHT22;66872;63.142;14.482;2023-09-18T09:52:36;17.40;45.10
16532;DHT22;66872;63.142;14.482;2023-09-18T09:55:03;17.30;45.10
16532;DHT22;66872;63.142;14.482;2023-09-18T09:57:46;17.30;45.10
16532;DHT22;66872;63.142;14.482;2023-09-18T10:00:13;17.30;45.10
16532;DHT22;66872;63.142;14.482;2023-09-18T10:03:04;17.40;45.10
16532;DHT22;66872;63.142;14.482;2023-09-18T10:05:32;17.40;45.10
16532;DHT22;66872;63.142;14.482;2023-09-18T10:08:03;17.40;45.10
16532;DHT22;66872;63.142;14.482;2023-09-18T10:10:32;17.40;45.10
16532;DHT22;66872;63.142;14.482;2023-09-18T10:13:18;17.40;45.00
16532;DHT22;66872;63.142;14.482;2023-09-18T10:15:48;17.40;45.00
16532;DHT22;66872;63.142;14.482;2023-09-18T10:21:16;17.40;45.00
16532;DHT22;66872;63.142;14.482;2023-09-18T10:26:32;17.40;44.90
16532;DHT22;66872;63.142;14.482;2023-09-18T10:28:59;17.40;45.00
16532;DHT22;66872;63.142;14.482;2023-09-18T10:31:29;17.40;44.90
16532;DHT22;66872;63.142;14.482;2023-09-18T10:33:58;17.40;45.00
16532;DHT22;66872;63.142;14.482;2023-09-18T10:36:25;17.40;45.00
16532;DHT22;66872;63.142;14.482;2023-09-18T10:38:52;17.40;44.90
16532;DHT22;66872;63.142;14.482;2023-09-18T10:41:20;17.40;45.00
16532;DHT22;66872;63.142;14.482;2023-09-18T10:43:47;17.40;45.00
16532;DHT22;66872;63.142;14.482;2023-09-18T10:46:14;17.40;45.00
16532;DHT22;66872;63.142;14.482;2023-09-18T10:48:43;17.40;44.90
16532;DHT22;66872;63.142;14.482;2023-09-18T10:51:11;17.40;44.90
16532;DHT22;66872;63.142;14.482;2023-09-18T10:53:40;17.40;44.90
16532;DHT22;66872;63.142;14.482;2023-09-18T10:56:06;17.40;44.90
16532;DHT22;66872;63.142;14.482;2023-09-18T10:58:33;17.40;45.00
16532;DHT22;66872;63.142;14.482;2023-09-18T11:01:05;17.40;45.10
16532;DHT22;66872;63.142;14.482;2023-09-18T11:03:33;17.40;45.00
16532;DHT22;66872;63.142;14.482;2023-09-18T11:06:10;17.50;45.20
16532;DHT22;66872;63.142;14.482;2023-09-18T11:08:43;17.50;45.10
16532;DHT22;66872;63.142;14.482;2023-09-18T11:11:10;17.50;43.80
16532;DHT22;66872;63.142;14.482;2023-09-18T11:13:52;17.50;44.00
16532;DHT22;66872;63.142;14.482;2023-09-18T11:21:33;17.50;43.20
16532;DHT22;66872;63.142;14.482;2023-09-18T11:24:06;17.40;42.20
16532;DHT22;66872;63.142;14.482;2023-09-18T11:26:36;17.40;41.50
16532;DHT22;66872;63.142;14.482;2023-09-18T11:29:04;17.40;41.00
16532;DHT22;66872;63.142;14.482;2023-09-18T11:31:45;17.40;41.40
16532;DHT22;66872;63.142;14.482;2023-09-18T11:34:12;17.30;40.70
16532;DHT22;66872;63.142;14.482;2023-09-18T11:36:38;17.30;41.20
16532;DHT22;66872;63.142;14.482;2023-09-18T11:39:04;17.30;41.50
16532;DHT22;66872;63.142;14.482;2023-09-18T11:41:34;17.40;41.40
16532;DHT22;66872;63.142;14.482;2023-09-18T11:46:47;17.60;41.50
16532;DHT22;66872;63.142;14.482;2023-09-18T11:49:21;17.60;41.50
16532;DHT22;66872;63.142;14.482;2023-09-18T11:51:53;17.70;41.60
16532;DHT22;66872;63.142;14.482;2023-09-18T11:54:19;17.70;41.60
16532;DHT22;66872;63.142;14.482;2023-09-18T11:56:46;17.80;41.70
16532;DHT22;66872;63.142;14.482;2023-09-18T11:59:12;17.80;41.90
16532;DHT22;66872;63.142;14.482;2023-09-18T12:01:38;17.80;41.80
16532;DHT22;66872;63.142;14.482;2023-09-18T12:04:05;17.70;41.70
16532;DHT22;66872;63.142;14.482;2023-09-18T12:06:35;17.80;41.80
16532;DHT22;66872;63.142;14.482;2023-09-18T12:09:01;17.80;41.90
16532;DHT22;66872;63.142;14.482;2023-09-18T12:11:29;17.80;42.00
16532;DHT22;66872;63.142;14.482;2023-09-18T12:13:54;17.80;42.10
16532;DHT22;66872;63.142;14.482;2023-09-18T12:16:21;17.80;42.20
16532;DHT22;66872;63.142;14.482;2023-09-18T12:18:47;17.80;42.20
16532;DHT22;66872;63.142;14.482;2023-09-18T12:21:14;17.70;42.40
16532;DHT22;66872;63.142;14.482;2023-09-18T12:23:41;17.70;42.80
16532;DHT22;66872;63.142;14.482;2023-09-18T12:26:15;17.70;43.00
16532;DHT22;66872;63.142;14.482;2023-09-18T12:28:42;17.80;43.20
16532;DHT22;66872;63.142;14.482;2023-09-18T12:31:13;17.80;43.40
16532;DHT22;66872;63.142;14.482;2023-09-18T12:33:40;17.80;43.30
16532;DHT22;66872;63.142;14.482;2023-09-18T12:36:07;17.80;43.50
16532;DHT22;66872;63.142;14.482;2023-09-18T12:38:34;17.80;43.40
16532;DHT22;66872;63.142;14.482;2023-09-18T12:41:01;17.80;43.70
16532;DHT22;66872;63.142;14.482;2023-09-18T12:43:39;17.80;43.70
16532;DHT22;66872;63.142;14.482;2023-09-18T12:46:09;17.80;43.80
16532;DHT22;66872;63.142;14.482;2023-09-18T12:48:39;17.80;44.00
16532;DHT22;66872;63.142;14.482;2023-09-18T12:51:11;17.80;43.90
16532;DHT22;66872;63.142;14.482;2023-09-18T12:53:37;17.80;44.00
16532;DHT22;66872;63.142;14.482;2023-09-18T12:56:10;17.80;44.10
16532;DHT22;66872;63.142;14.482;2023-09-18T12:58:38;17.80;44.00
16532;DHT22;66872;63.142;14.482;2023-09-18T13:01:06;17.80;44.10
16532;DHT22;66872;63.142;14.482;2023-09-18T13:03:34;17.80;44.10
16532;DHT22;66872;63.142;14.482;2023-09-18T13:06:11;17.90;44.00
16532;DHT22;66872;63.142;14.482;2023-09-18T13:08:38;17.90;44.00
16532;DHT22;66872;63.142;14.482;2023-09-18T13:11:03;17.90;43.90
16532;DHT22;66872;63.142;14.482;2023-09-18T13:13:30;17.90;43.90
16532;DHT22;66872;63.142;14.482;2023-09-18T13:16:00;17.90;43.90
16532;DHT22;66872;63.142;14.482;2023-09-18T13:18:26;17.90;44.00
16532;DHT22;66872;63.142;14.482;2023-09-18T13:20:53;17.90;44.10
16532;DHT22;66872;63.142;14.482;2023-09-18T13:23:19;17.90;44.10
16532;DHT22;66872;63.142;14.482;2023-09-18T13:25:45;17.90;44.10
16532;DHT22;66872;63.142;14.482;2023-09-18T13:28:13;17.90;44.10
16532;DHT22;66872;63.142;14.482;2023-09-18T13:30:40;17.90;44.10
16532;DHT22;66872;63.142;14.482;2023-09-18T13:33:08;17.80;44.60
16532;DHT22;66872;63.142;14.482;2023-09-18T13:35:41;17.80;44.10
16532;DHT22;66872;63.142;14.482;2023-09-18T13:38:08;17.80;44.10
16532;DHT22;66872;63.142;14.482;2023-09-18T13:40:38;17.90;44.30
16532;DHT22;66872;63.142;14.482;2023-09-18T13:43:04;17.90;44.30
16532;DHT22;66872;63.142;14.482;2023-09-18T13:45:31;17.90;44.30
16532;DHT22;66872;63.142;14.482;2023-09-18T13:47:57;18.00;44.40
16532;DHT22;66872;63.142;14.482;2023-09-18T13:50:24;18.00;44.40
16532;DHT22;66872;63.142;14.482;2023-09-18T13:52:50;18.10;44.50
16532;DHT22;66872;63.142;14.482;2023-09-18T13:55:16;18.00;44.10
16532;DHT22;66872;63.142;14.482;2023-09-18T13:57:42;17.90;44.00
16532;DHT22;66872;63.142;14.482;2023-09-18T14:00:08;17.90;44.30
16532;DHT22;66872;63.142;14.482;2023-09-18T14:02:38;17.80;44.40
16532;DHT22;66872;63.142;14.482;2023-09-18T14:05:04;17.80;44.60
16532;DHT22;66872;63.142;14.482;2023-09-18T14:07:30;17.80;44.90
16532;DHT22;66872;63.142;14.482;2023-09-18T14:09:56;17.90;45.00
16532;DHT22;66872;63.142;14.482;2023-09-18T14:12:22;17.80;44.40
16532;DHT22;66872;63.142;14.482;2023-09-18T14:14:48;17.80;44.70
16532;DHT22;66872;63.142;14.482;2023-09-18T14:17:14;17.80;44.80
16532;DHT22;66872;63.142;14.482;2023-09-18T14:19:42;17.80;45.10
16532;DHT22;66872;63.142;14.482;2023-09-18T14:22:08;17.80;45.30
16532;DHT22;66872;63.142;14.482;2023-09-18T14:24:34;17.80;45.30
16532;DHT22;66872;63.142;14.482;2023-09-18T14:27:00;17.80;45.40
16532;DHT22;66872;63.142;14.482;2023-09-18T14:29:26;17.80;45.50
16532;DHT22;66872;63.142;14.482;2023-09-18T14:31:52;17.80;45.80
16532;DHT22;66872;63.142;14.482;2023-09-18T14:34:18;17.90;45.90
16532;DHT22;66872;63.142;14.482;2023-09-18T14:36:44;17.90;46.00
16532;DHT22;66872;63.142;14.482;2023-09-18T14:39:10;17.90;46.00
16532;DHT22;66872;63.142;14.482;2023-09-18T14:41:37;17.90;46.10
16532;DHT22;66872;63.142;14.482;2023-09-18T14:44:07;17.90;46.00
16532;DHT22;66872;63.142;14.482;2023-09-18T14:46:34;17.90;46.10
16532;DHT22;66872;63.142;14.482;2023-09-18T14:49:04;18.00;46.10
16532;DHT22;66872;63.142;14.482;2023-09-18T14:51:30;18.00;46.20
16532;DHT22;66872;63.142;14.482;2023-09-18T14:53:57;18.00;46.40
16532;DHT22;66872;63.142;14.482;2023-09-18T14:56:23;18.00;46.40
16532;DHT22;66872;63.142;14.482;2023-09-18T14:58:49;18.00;46.40
16532;DHT22;66872;63.142;14.482;2023-09-18T15:01:20;18.00;46.50
16532;DHT22;66872;63.142;14.482;2023-09-18T15:03:46;18.00;46.40
16532;DHT22;66872;63.142;14.482;2023-09-18T15:06:12;18.00;46.50
16532;DHT22;66872;63.142;14.482;2023-09-18T15:08:38;18.00;46.00
16532;DHT22;66872;63.142;14.482;2023-09-18T15:11:04;17.90;44.00
16532;DHT22;66872;63.142;14.482;2023-09-18T15:13:30;17.80;43.70
16532;DHT22;66872;63.142;14.482;2023-09-18T15:15:56;17.70;43.90
16532;DHT22;66872;63.142;14.482;2023-09-18T15:18:22;17.70;44.00
16532;DHT22;66872;63.142;14.482;2023-09-18T15:20:48;17.60;44.30
16532;DHT22;66872;63.142;14.482;2023-09-18T15:23:22;17.60;44.50
16532;DHT22;66872;63.142;14.482;2023-09-18T15:25:52;17.60;44.60
16532;DHT22;66872;63.142;14.482;2023-09-18T15:28:21;17.60;44.70
16532;DHT22;66872;63.142;14.482;2023-09-18T15:30:49;17.60;44.70